createdAt,value
2022-12-20T00:00:48.928Z,23.20
2022-12-20T00:01:51.519Z,24.20
2022-12-20T00:02:53.872Z,22.15
2022-12-20T00:03:58.368Z,21.48
2022-12-20T00:05:00.665Z,21.65
2022-12-20T00:06:03.272Z,20.30
2022-12-20T00:07:05.715Z,19.02
2022-12-20T00:08:09.887Z,18.48
2022-12-20T00:09:13.184Z,19.48
2022-12-20T00:10:15.443Z,20.38
2022-12-20T00:11:17.640Z,21.00
2022-12-20T00:12:19.867Z,21.67
2022-12-20T00:13:22.454Z,20.33
2022-12-20T00:14:24.917Z,20.85
2022-12-20T00:15:27.226Z,20.58
2022-12-20T00:16:30.019Z,21.02
2022-12-20T00:17:32.828Z,22.60
2022-12-20T00:18:36.188Z,21.25
2022-12-20T00:19:38.608Z,21.35
2022-12-20T00:20:40.884Z,21.63
2022-12-20T00:21:43.138Z,23.52
2022-12-20T00:22:45.736Z,19.88
2022-12-20T00:23:48.015Z,20.10
2022-12-20T00:24:50.268Z,20.95
2022-12-20T00:25:52.482Z,23.05
2022-12-20T00:26:54.740Z,24.17
2022-12-20T00:27:57.097Z,22.90
2022-12-20T00:29:00.261Z,21.33
2022-12-20T00:30:04.134Z,20.58
2022-12-20T00:31:08.148Z,19.58
2022-12-20T00:32:11.054Z,20.80
2022-12-20T00:33:13.423Z,19.92
2022-12-20T00:34:16.419Z,17.88
2022-12-20T00:35:18.909Z,19.50
2022-12-20T00:36:22.473Z,19.98
2022-12-20T00:37:24.765Z,17.63
2022-12-20T00:38:27.686Z,17.88
2022-12-20T00:39:29.943Z,18.75
2022-12-20T00:40:32.163Z,20.50
2022-12-20T00:41:34.900Z,22.27
2022-12-20T00:42:37.170Z,18.88
2022-12-20T00:43:41.267Z,19.85
2022-12-20T00:44:45.299Z,16.38
2022-12-20T00:45:47.542Z,18.88
2022-12-20T00:46:50.236Z,18.75
2022-12-20T00:47:52.697Z,20.23
2022-12-20T00:48:56.765Z,19.92
2022-12-20T00:49:59.013Z,20.70
2022-12-20T00:51:06.793Z,21.55
2022-12-20T00:52:10.090Z,19.70
2022-12-20T00:53:12.492Z,20.48
2022-12-20T00:54:14.730Z,19.13
2022-12-20T00:55:17.128Z,19.70
2022-12-20T00:56:21.097Z,18.00
2022-12-20T00:57:24.016Z,18.23
2022-12-20T00:58:28.096Z,18.15
2022-12-20T00:59:33.546Z,17.20
2022-12-20T01:00:35.892Z,16.90
2022-12-20T01:01:38.209Z,18.60
2022-12-20T01:02:40.559Z,16.48
2022-12-20T01:03:43.054Z,16.98
2022-12-20T01:04:45.418Z,17.42
2022-12-20T01:05:59.622Z,15.43
2022-12-20T01:07:02.520Z,16.05
2022-12-20T01:08:05.172Z,15.30
2022-12-20T01:09:07.378Z,15.98
2022-12-20T01:10:10.640Z,15.43
2022-12-20T01:11:17.249Z,15.70
2022-12-20T01:12:19.957Z,15.35
2022-12-20T01:13:22.250Z,16.02
2022-12-20T01:14:24.518Z,15.63
2022-12-20T01:15:26.779Z,16.15
2022-12-20T01:16:38.302Z,16.05
2022-12-20T01:17:41.157Z,15.27
2022-12-20T01:18:44.248Z,15.77
2022-12-20T01:19:46.519Z,15.85
2022-12-20T01:20:48.987Z,15.80
2022-12-20T01:21:51.286Z,15.65
2022-12-20T01:22:53.751Z,13.43
2022-12-20T01:23:56.764Z,14.98
2022-12-20T01:24:59.285Z,14.48
2022-12-20T01:26:05.042Z,14.63
2022-12-20T01:27:07.270Z,14.63
2022-12-20T01:28:10.066Z,15.57
2022-12-20T01:29:12.393Z,15.15
2022-12-20T01:30:15.507Z,17.00
2022-12-20T01:31:19.566Z,14.93
2022-12-20T01:32:21.900Z,14.90
2022-12-20T01:33:25.021Z,13.88
2022-12-20T01:34:27.714Z,12.88
2022-12-20T01:35:30.364Z,13.00
2022-12-20T01:36:35.061Z,13.55
2022-12-20T01:37:37.324Z,16.40
2022-12-20T01:38:39.647Z,15.95
2022-12-20T01:39:42.092Z,14.85
2022-12-20T01:40:44.318Z,15.25
2022-12-20T01:41:48.283Z,13.38
2022-12-20T01:42:50.729Z,14.70
2022-12-20T01:43:56.245Z,16.35
2022-12-20T01:44:59.575Z,15.25
2022-12-20T01:46:01.924Z,13.30
2022-12-20T01:47:04.331Z,13.77
2022-12-20T01:48:07.564Z,11.68
2022-12-20T01:49:28.701Z,12.05
2022-12-20T01:50:30.994Z,11.20
2022-12-20T01:51:36.987Z,12.07
2022-12-20T01:52:43.573Z,11.93
2022-12-20T01:53:49.002Z,11.45
2022-12-20T01:55:05.457Z,11.95
2022-12-20T01:56:10.049Z,12.88
2022-12-20T01:57:21.071Z,11.43
2022-12-20T01:58:23.411Z,12.05
2022-12-20T01:59:27.153Z,11.73
2022-12-20T02:00:30.668Z,13.50
